Terminal Aerodrome Forecast
Issued by NWS

Home | Current Version | Previous Version | Text Only | Print | Product List | Glossary On
Versions: 1 2 3 4 5 6 7 8 9 10 11 12 13 14 15 16 17
000
FTUS45 KABQ 192336
TAFSAF
TAF
KSAF 192336Z 2000/2024 28011KT P6SM SCT035 BKN080
     FM200500 30008KT P6SM VCSH OVC040
     FM201200 23008G15KT 2SM -SN BR BKN025 OVC040
     FM201600 23015KT 5SM BR SCT002 OVC015
     FM201800 25021G28KT P6SM OVC040=

USA.gov is the U.S. government's official web portal to all federal, state and local government web resources and services.